Time;durP1;ratioP1;P1;durP2;ratioP2;P2;SDS_P1;SDS_P2;PMS_P1;PMS_P2;Temp;Humidity;BMP_temperature;BMP_pressure;BME280_temperature;BME280_humidity;BME280_pressure;Samples;Min_cycle;Max_cycle;Signal;HPM_P1;HPM_P2
2022/05/19 00:01:02;;;;;;;32.67;22.67;;;17.90;99.90;;;;;;6158695;23;20025;-87
2022/05/19 00:03:35;;;;;;;32.92;21.27;;;17.90;99.90;;;;;;6185332;23;20033;-87
2022/05/19 00:06:02;;;;;;;34.42;22.55;;;17.90;99.90;;;;;;6189446;23;20021;-87
2022/05/19 00:08:28;;;;;;;29.50;21.08;;;17.90;99.90;;;;;;6185672;23;20013;-87
2022/05/19 00:10:57;;;;;;;32.05;22.88;;;17.90;99.90;;;;;;6158228;23;20028;-87
2022/05/19 00:13:24;;;;;;;30.48;22.00;;;17.90;99.90;;;;;;6184802;23;20366;-87
2022/05/19 00:15:50;;;;;;;29.92;21.42;;;17.90;99.90;;;;;;6160672;23;20433;-87
2022/05/19 00:18:16;;;;;;;30.77;21.98;;;17.90;99.90;;;;;;6158208;23;20083;-87
2022/05/19 00:20:41;;;;;;;34.38;23.13;;;17.90;99.90;;;;;;6184298;23;20044;-86
2022/05/19 00:23:07;;;;;;;31.90;22.73;;;17.90;99.90;;;;;;6159175;23;20025;-86
2022/05/19 00:25:33;;;;;;;32.88;22.75;;;17.80;99.90;;;;;;6158966;23;20028;-86
2022/05/19 00:27:59;;;;;;;33.88;23.35;;;17.80;99.90;;;;;;6157271;23;20508;-87
2022/05/19 00:30:24;;;;;;;33.85;24.10;;;17.80;99.90;;;;;;6184904;23;20100;-87
2022/05/19 00:32:50;;;;;;;32.92;22.58;;;17.70;99.90;;;;;;6185101;23;20084;-87
2022/05/19 00:35:16;;;;;;;34.10;22.45;;;17.70;99.90;;;;;;6157814;23;20025;-87
2022/05/19 00:37:42;;;;;;;30.25;23.17;;;17.60;99.90;;;;;;6184877;23;20030;-87
2022/05/19 00:40:08;;;;;;;32.05;22.67;;;17.60;99.90;;;;;;6182302;23;20013;-87
2022/05/19 00:42:46;;;;;;;31.58;21.63;;;17.60;99.90;;;;;;6159138;23;20022;-87
2022/05/19 00:45:23;;;;;;;28.40;21.08;;;17.50;99.90;;;;;;6185867;23;20021;-87
2022/05/19 00:48:16;;;;;;;35.13;22.95;;;17.50;99.90;;;;;;6184797;23;20049;-86
2022/05/19 00:50:50;;;;;;;36.58;22.55;;;17.40;99.90;;;;;;6158141;23;20021;-87
2022/05/19 00:53:27;;;;;;;31.55;22.75;;;17.40;99.90;;;;;;6158600;23;20433;-87
2022/05/19 00:55:55;;;;;;;34.22;24.05;;;17.30;99.90;;;;;;6183837;23;20029;-87
2022/05/19 00:58:33;;;;;;;32.20;22.63;;;17.30;99.90;;;;;;6158385;23;20344;-86
2022/05/19 01:00:59;;;;;;;29.92;22.08;;;17.30;99.90;;;;;;6184365;23;20449;-87
2022/05/19 01:03:27;;;;;;;34.67;23.75;;;17.20;99.90;;;;;;6184338;23;20043;-87
2022/05/19 01:05:59;;;;;;;30.38;21.40;;;17.10;99.90;;;;;;6184689;23;20421;-87
2022/05/19 01:08:40;;;;;;;34.15;22.13;;;17.10;99.90;;;;;;6185035;23;20017;-87
2022/05/19 01:11:07;;;;;;;31.70;22.55;;;17.00;99.90;;;;;;6158965;23;20385;-87
2022/05/19 01:13:35;;;;;;;32.47;23.55;;;17.00;99.90;;;;;;6158713;23;20079;-86
2022/05/19 01:16:03;;;;;;;36.33;25.00;;;16.90;99.90;;;;;;6184274;23;20381;-87
2022/05/19 01:18:30;;;;;;;36.58;26.27;;;16.90;99.90;;;;;;6159108;23;20014;-87
2022/05/19 01:20:58;;;;;;;40.35;26.40;;;16.90;99.90;;;;;;6185000;23;20070;-87
2022/05/19 01:23:45;;;;;;;33.75;25.25;;;16.90;99.90;;;;;;6184345;23;20064;-87
2022/05/19 01:26:36;;;;;;;37.55;25.70;;;16.80;99.90;;;;;;6186439;23;20568;-86
2022/05/19 01:29:01;;;;;;;37.67;25.33;;;16.80;99.90;;;;;;6160789;23;20484;-87
2022/05/19 01:31:43;;;;;;;38.08;26.65;;;16.80;99.90;;;;;;6186416;23;20120;-87
2022/05/19 01:34:09;;;;;;;35.60;25.45;;;16.70;99.90;;;;;;6186999;23;20028;-87
2022/05/19 01:36:35;;;;;;;35.97;27.25;;;16.70;99.90;;;;;;6160101;23;20333;-87
2022/05/19 01:39:10;;;;;;;38.35;26.48;;;16.70;99.90;;;;;;6187320;23;20454;-87
2022/05/19 01:42:04;;;;;;;38.28;27.88;;;16.70;99.90;;;;;;6161337;23;20457;-86
2022/05/19 01:44:57;;;;;;;40.00;27.50;;;16.70;99.90;;;;;;6186463;23;20075;-87
2022/05/19 01:47:40;;;;;;;43.50;28.30;;;16.70;99.90;;;;;;6187420;23;20017;-86
2022/05/19 01:50:28;;;;;;;39.80;28.02;;;16.60;99.90;;;;;;6189582;23;20445;-87
2022/05/19 01:53:12;;;;;;;40.30;28.98;;;16.60;99.90;;;;;;6185528;23;20009;-88
2022/05/19 01:55:51;;;;;;;36.13;27.10;;;16.60;99.90;;;;;;6159924;23;20032;-87
2022/05/19 01:58:46;;;;;;;42.95;28.42;;;16.50;99.90;;;;;;6186287;23;20080;-87
2022/05/19 02:01:14;;;;;;;39.17;28.80;;;16.50;99.90;;;;;;6163278;23;20012;-87
2022/05/19 02:04:08;;;;;;;41.63;28.90;;;16.40;99.90;;;;;;6186468;23;20028;-86
2022/05/19 02:06:44;;;;;;;40.40;28.42;;;16.50;99.90;;;;;;6186181;23;20020;-87
2022/05/19 02:09:18;;;;;;;38.83;28.17;;;16.40;99.90;;;;;;6187272;23;20063;-86
2022/05/19 02:11:50;;;;;;;;;;;16.40;99.90;;;;;;6159513;23;20025;-87
2022/05/19 02:14:20;;;;;;;40.75;29.13;;;16.40;99.90;;;;;;6187604;23;19947;-87
2022/05/19 02:16:47;;;;;;;44.83;29.88;;;16.40;99.90;;;;;;6186717;23;20021;-87
2022/05/19 02:19:17;;;;;;;47.50;30.85;;;16.40;99.90;;;;;;6158824;23;20035;-87
2022/05/19 02:21:44;;;;;;;39.78;30.63;;;16.30;99.90;;;;;;6186442;23;20024;-87
2022/05/19 02:24:13;;;;;;;41.22;30.15;;;16.30;99.90;;;;;;6187505;23;20426;-86
2022/05/19 02:26:39;;;;;;;38.97;29.08;;;16.20;99.90;;;;;;6186077;23;20109;-88
2022/05/19 02:29:09;;;;;;;42.33;29.42;;;16.20;99.90;;;;;;6187215;23;20052;-86
2022/05/19 02:31:35;;;;;;;46.58;31.83;;;16.20;99.90;;;;;;6159492;23;20017;-86
2022/05/19 02:34:01;;;;;;;45.60;31.98;;;16.10;99.90;;;;;;6184994;23;20013;-86
2022/05/19 02:36:27;;;;;;;42.78;30.65;;;16.10;99.90;;;;;;6185620;23;20028;-87
2022/05/19 02:38:53;;;;;;;44.90;30.75;;;16.00;99.90;;;;;;6159967;23;20027;-86
2022/05/19 02:41:19;;;;;;;47.25;31.80;;;16.00;99.90;;;;;;6185674;23;20013;-87
2022/05/19 02:43:44;;;;;;;40.58;30.95;;;16.00;99.90;;;;;;6186496;23;20021;-87
2022/05/19 02:46:10;;;;;;;44.83;31.45;;;16.00;99.90;;;;;;6186583;23;20020;-86
2022/05/19 02:48:36;;;;;;;44.75;31.70;;;15.90;99.90;;;;;;6158648;23;20095;-87
2022/05/19 02:51:04;;;;;;;41.22;30.95;;;15.90;99.90;;;;;;6159128;23;20488;-87
2022/05/19 02:53:29;;;;;;;45.55;33.08;;;15.90;99.90;;;;;;6160198;23;20009;-86
2022/05/19 02:55:55;;;;;;;44.70;32.15;;;15.80;99.90;;;;;;6158433;23;20368;-87
2022/05/19 02:58:21;;;;;;;45.17;32.22;;;15.80;99.90;;;;;;6186735;23;20025;-86
2022/05/19 03:00:48;;;;;;;48.17;32.97;;;15.80;99.90;;;;;;6185310;23;20088;-87
2022/05/19 03:03:14;;;;;;;49.28;33.75;;;15.80;99.90;;;;;;6160642;23;20020;-87
2022/05/19 03:05:40;;;;;;;47.85;33.38;;;15.80;99.90;;;;;;6185867;23;20017;-86
2022/05/19 03:08:07;;;;;;;44.28;32.33;;;15.80;99.90;;;;;;6186079;23;20009;-86
2022/05/19 03:10:35;;;;;;;47.25;31.38;;;15.70;99.90;;;;;;6186990;23;20100;-86
2022/05/19 03:13:01;;;;;;;48.15;32.17;;;15.80;99.90;;;;;;6159229;23;20013;-87
2022/05/19 03:15:26;;;;;;;47.85;33.10;;;15.80;99.90;;;;;;6159149;23;20100;-86
2022/05/19 03:17:52;;;;;;;45.90;32.38;;;15.80;99.90;;;;;;6185627;23;20024;-86
2022/05/19 03:20:19;;;;;;;42.85;30.55;;;15.80;99.90;;;;;;6158986;23;20028;-86
2022/05/19 03:22:44;;;;;;;44.42;33.00;;;15.90;99.90;;;;;;6184467;23;20021;-86
2022/05/19 03:25:10;;;;;;;46.15;32.95;;;15.90;99.90;;;;;;6159192;23;20020;-86
2022/05/19 03:27:37;;;;;;;47.63;34.70;;;15.90;99.90;;;;;;6185722;23;20017;-85
2022/05/19 03:30:06;;;;;;;45.55;34.03;;;15.90;99.90;;;;;;6184837;23;20024;-86
2022/05/19 03:32:31;;;;;;;46.80;33.70;;;15.90;99.90;;;;;;6187007;23;20024;-86
2022/05/19 03:34:57;;;;;;;49.05;33.03;;;15.90;99.90;;;;;;6185283;23;20021;-87
2022/05/19 03:37:22;;;;;;;47.90;34.30;;;15.90;99.90;;;;;;6184825;23;20017;-86
2022/05/19 03:39:48;;;;;;;47.03;33.95;;;15.80;99.90;;;;;;6158479;23;20438;-86
2022/05/19 03:42:13;;;;;;;44.60;33.45;;;15.90;99.90;;;;;;6159095;23;20029;-86
2022/05/19 03:44:39;;;;;;;50.38;34.67;;;15.80;99.90;;;;;;6157802;23;20021;-86
2022/05/19 03:47:05;;;;;;;48.30;34.65;;;15.80;99.90;;;;;;6159023;23;20381;-86
2022/05/19 03:49:32;;;;;;;49.05;34.08;;;16.20;99.90;;;;;;6159067;23;20036;-86
2022/05/19 03:51:57;;;;;;;47.35;33.88;;;15.80;99.90;;;;;;6184611;23;20075;-86
2022/05/19 03:54:23;;;;;;;47.10;34.00;;;15.70;99.90;;;;;;6185184;23;20465;-86
2022/05/19 03:56:49;;;;;;;47.67;34.00;;;15.80;99.90;;;;;;6158696;23;20045;-86
2022/05/19 03:59:15;;;;;;;44.60;34.05;;;15.70;99.90;;;;;;6184674;23;20017;-87
2022/05/19 04:01:40;;;;;;;48.28;35.25;;;15.80;99.90;;;;;;6185091;23;20071;-86
2022/05/19 04:04:07;;;;;;;47.40;33.80;;;15.70;99.90;;;;;;6184160;23;20020;-86
2022/05/19 04:06:34;;;;;;;46.17;33.83;;;15.80;99.90;;;;;;6184839;23;20136;-86
2022/05/19 04:09:00;;;;;;;44.97;33.05;;;15.70;99.90;;;;;;6184959;23;20048;-86
2022/05/19 04:11:26;;;;;;;46.30;34.08;;;15.80;99.90;;;;;;6184151;23;20021;-86
2022/05/19 04:13:52;;;;;;;46.90;34.70;;;15.80;99.90;;;;;;6184916;23;20071;-87
2022/05/19 04:16:18;;;;;;;48.65;35.95;;;15.90;99.90;;;;;;6185245;23;20017;-86
2022/05/19 04:18:43;;;;;;;45.90;33.90;;;15.90;99.90;;;;;;6184628;23;20075;-86
2022/05/19 04:21:09;;;;;;;45.28;34.03;;;15.90;99.90;;;;;;6185948;23;20017;-87
2022/05/19 04:23:35;;;;;;;45.70;33.83;;;15.90;99.90;;;;;;6183414;23;20021;-86
2022/05/19 04:26:00;;;;;;;44.28;33.22;;;15.90;99.90;;;;;;6158261;23;20341;-86
2022/05/19 04:28:26;;;;;;;46.40;33.92;;;16.00;99.90;;;;;;6159197;23;20092;-86
2022/05/19 04:30:51;;;;;;;44.70;33.00;;;16.00;99.90;;;;;;6185071;23;20040;-86
2022/05/19 04:33:17;;;;;;;47.85;33.30;;;16.00;99.90;;;;;;6184851;23;20013;-86
2022/05/19 04:35:42;;;;;;;45.50;33.85;;;16.10;99.90;;;;;;6185516;23;20021;-86
2022/05/19 04:38:11;;;;;;;45.05;33.55;;;16.10;99.90;;;;;;6185939;23;20024;-86
2022/05/19 04:40:42;;;;;;;44.55;33.28;;;16.20;99.90;;;;;;6158823;23;20028;-89
2022/05/19 04:43:08;;;;;;;44.97;33.67;;;16.20;99.90;;;;;;6185350;23;20009;-87
2022/05/19 04:45:33;;;;;;;48.03;33.85;;;16.30;99.90;;;;;;6185763;23;20032;-87
2022/05/19 04:48:00;;;;;;;43.90;32.97;;;16.30;99.90;;;;;;6157933;23;20442;-87
2022/05/19 04:50:26;;;;;;;46.63;33.85;;;16.40;99.90;;;;;;6185672;23;20342;-86
2022/05/19 04:52:51;;;;;;;43.42;33.80;;;16.50;99.90;;;;;;6185460;23;20013;-86
2022/05/19 04:55:17;;;;;;;41.30;32.63;;;16.60;99.90;;;;;;6157912;23;20025;-88
2022/05/19 04:57:44;;;;;;;38.53;31.65;;;16.70;99.90;;;;;;6158538;23;20053;-88
2022/05/19 05:00:12;;;;;;;40.92;31.48;;;16.80;99.90;;;;;;6160328;23;20097;-88
2022/05/19 05:02:39;;;;;;;41.03;30.63;;;16.90;99.90;;;;;;6189050;23;20044;-87
2022/05/19 05:05:05;;;;;;;38.50;30.30;;;17.00;99.90;;;;;;6161709;23;20017;-90
2022/05/19 05:07:31;;;;;;;41.50;31.05;;;17.10;99.90;;;;;;6159857;23;20635;-89
2022/05/19 05:09:56;;;;;;;39.05;31.00;;;17.20;99.90;;;;;;6186245;23;20044;-89
2022/05/19 05:12:22;;;;;;;39.58;31.20;;;17.30;99.90;;;;;;6187433;23;20031;-88
2022/05/19 05:14:48;;;;;;;36.55;29.38;;;17.40;99.90;;;;;;6184804;23;20019;-88
2022/05/19 05:17:14;;;;;;;40.30;28.92;;;17.50;99.90;;;;;;6187262;23;20444;-87
2022/05/19 05:19:41;;;;;;;36.38;28.13;;;17.60;99.90;;;;;;6160283;23;20017;-88
2022/05/19 05:22:06;;;;;;;36.40;27.60;;;17.70;99.90;;;;;;6160113;23;20071;-88
2022/05/19 05:24:32;;;;;;;35.38;26.17;;;17.80;99.90;;;;;;6187517;23;20428;-87
2022/05/19 05:26:58;;;;;;;34.08;26.13;;;17.90;99.90;;;;;;6160424;23;20020;-87
2022/05/19 05:29:24;;;;;;;32.67;25.60;;;18.10;99.90;;;;;;6186263;23;20044;-87
2022/05/19 05:31:49;;;;;;;32.47;25.70;;;18.20;99.90;;;;;;6160024;23;20075;-87
2022/05/19 05:34:15;;;;;;;31.60;25.13;;;18.30;99.90;;;;;;6186492;23;20013;-86
2022/05/19 05:36:40;;;;;;;32.75;25.83;;;18.40;99.90;;;;;;6159339;23;20059;-87
2022/05/19 05:39:06;;;;;;;29.23;23.17;;;18.60;99.90;;;;;;6186548;23;20025;-86
2022/05/19 05:41:32;;;;;;;30.65;23.38;;;18.70;99.90;;;;;;6161398;23;20025;-86
2022/05/19 05:43:57;;;;;;;29.55;23.13;;;18.80;99.90;;;;;;6185545;23;20021;-86
2022/05/19 05:46:23;;;;;;;30.90;23.00;;;18.80;99.90;;;;;;6187038;23;20350;-87
2022/05/19 05:48:48;;;;;;;29.83;21.63;;;18.90;99.90;;;;;;6186422;23;20334;-87
2022/05/19 05:51:16;;;;;;;27.80;21.42;;;19.00;99.90;;;;;;6158853;23;20100;-87
2022/05/19 05:53:44;;;;;;;26.88;20.17;;;19.00;99.90;;;;;;6186596;23;20009;-88
2022/05/19 05:56:16;;;;;;;27.77;18.17;;;19.10;99.90;;;;;;6186905;23;20023;-89
2022/05/19 05:58:42;;;;;;;24.50;18.63;;;19.20;99.90;;;;;;6186278;23;20063;-93
2022/05/19 06:01:09;;;;;;;27.90;18.13;;;19.50;99.90;;;;;;6160572;23;20032;-92
2022/05/19 06:03:35;;;;;;;22.05;16.35;;;19.50;99.90;;;;;;6190689;23;20017;-89
2022/05/19 06:06:02;;;;;;;20.70;15.68;;;19.70;99.90;;;;;;6187706;23;20013;-90
2022/05/19 06:08:27;;;;;;;21.00;14.70;;;19.90;99.90;;;;;;6186862;23;20045;-89
2022/05/19 06:10:53;;;;;;;19.40;14.10;;;20.10;99.90;;;;;;6186378;23;20021;-89
2022/05/19 06:13:19;;;;;;;20.13;14.27;;;20.20;99.90;;;;;;6162833;23;20013;-89
2022/05/19 06:15:44;;;;;;;19.13;13.52;;;20.50;99.90;;;;;;6163034;23;20048;-90
2022/05/19 06:18:11;;;;;;;17.80;12.60;;;20.30;99.90;;;;;;6159344;23;20493;-89
2022/05/19 06:20:38;;;;;;;18.17;12.32;;;20.50;99.90;;;;;;6160130;23;20060;-92
2022/05/19 06:23:04;;;;;;;19.75;13.82;;;20.40;99.90;;;;;;6187738;23;20021;-92
2022/05/19 06:25:30;;;;;;;19.00;12.05;;;20.30;99.90;;;;;;6186464;23;20015;-95
2022/05/19 06:27:56;;;;;;;17.77;13.02;;;20.30;99.90;;;;;;6186653;23;20084;-92
2022/05/19 06:30:22;;;;;;;18.73;12.88;;;20.90;99.90;;;;;;6187239;23;20013;-95
2022/05/19 06:32:49;;;;;;;17.30;13.18;;;20.30;99.90;;;;;;6185809;23;20017;-93
2022/05/19 06:35:17;;;;;;;19.33;13.30;;;20.30;99.90;;;;;;6186796;23;20021;-93
2022/05/19 06:37:43;;;;;;;19.00;12.88;;;20.30;99.90;;;;;;6171894;23;20025;-93
2022/05/19 06:40:09;;;;;;;16.85;12.10;;;20.40;99.90;;;;;;6160783;23;20100;-91
2022/05/19 06:42:35;;;;;;;18.38;12.73;;;20.50;99.90;;;;;;6186617;23;20063;-92
2022/05/19 06:45:01;;;;;;;18.30;12.15;;;20.50;99.90;;;;;;6159764;23;20020;-94
2022/05/19 06:47:28;;;;;;;22.38;12.60;;;20.70;99.90;;;;;;6160018;23;20024;-94
2022/05/19 06:49:57;;;;;;;18.67;11.55;;;20.90;99.90;;;;;;6186045;23;20020;-92
2022/05/19 06:52:25;;;;;;;15.75;11.00;;;21.20;99.90;;;;;;6161696;23;20021;-94
2022/05/19 06:54:53;;;;;;;16.70;10.18;;;21.30;99.90;;;;;;6188328;23;20012;-95
2022/05/19 06:57:20;;;;;;;16.05;10.50;;;21.50;99.90;;;;;;6186974;23;20072;-93
2022/05/19 06:59:47;;;;;;;16.30;9.73;;;21.60;99.90;;;;;;6158804;23;20079;-90
2022/05/19 07:02:13;;;;;;;14.38;8.85;;;21.70;99.90;;;;;;6166710;23;20021;-94
2022/05/19 07:04:40;;;;;;;14.43;8.48;;;22.10;99.90;;;;;;6186874;23;20017;-92
2022/05/19 07:07:06;;;;;;;13.18;8.80;;;21.80;99.90;;;;;;6194760;23;20093;-93
2022/05/19 07:09:33;;;;;;;13.95;8.93;;;21.70;99.90;;;;;;6163290;23;20017;-93
2022/05/19 07:12:00;;;;;;;15.63;8.95;;;22.20;99.90;;;;;;6186500;23;20028;-93
2022/05/19 07:14:26;;;;;;;13.52;8.20;;;21.80;99.90;;;;;;6158430;23;20024;-91
2022/05/19 07:16:52;;;;;;;13.82;8.07;;;21.90;99.90;;;;;;6185477;23;20017;-92
2022/05/19 07:22:04;;;;;;;14.93;8.68;;;22.20;99.90;;;;;;6184677;23;20022;-92
2022/05/19 07:24:31;;;;;;;13.43;7.70;;;22.60;99.90;;;;;;6185958;23;20017;-91
2022/05/19 07:26:58;;;;;;;13.07;8.00;;;22.60;99.90;;;;;;6185775;23;20035;-91
2022/05/19 07:29:25;;;;;;;14.27;8.00;;;22.80;99.90;;;;;;6158555;23;20025;-91
2022/05/19 07:31:52;;;;;;;12.93;8.55;;;22.90;99.90;;;;;;6185555;23;20021;-91
2022/05/19 07:34:20;;;;;;;11.60;7.85;;;23.00;99.90;;;;;;6159006;23;20442;-90
2022/05/19 07:36:46;;;;;;;14.65;8.02;;;23.10;99.90;;;;;;6158351;23;20020;-91
2022/05/19 07:39:11;;;;;;;12.55;8.05;;;23.40;99.90;;;;;;6185758;23;20009;-91
2022/05/19 07:41:38;;;;;;;16.08;9.05;;;22.90;99.90;;;;;;6160013;23;20338;-91
2022/05/19 07:44:06;;;;;;;14.38;8.77;;;22.80;99.90;;;;;;6158047;23;20115;-91
2022/05/19 07:46:32;;;;;;;13.30;8.40;;;22.80;99.90;;;;;;6159264;23;20017;-92
2022/05/19 07:48:58;;;;;;;12.77;8.15;;;23.00;99.90;;;;;;6157812;23;20027;-90
2022/05/19 07:51:36;;;;;;;13.55;8.10;;;22.50;99.90;;;;;;6159867;23;20028;-91
2022/05/19 07:54:04;;;;;;;14.93;8.45;;;22.60;99.90;;;;;;6185011;23;20091;-87
2022/05/19 07:56:29;;;;;;;15.80;8.70;;;22.50;99.90;;;;;;6182281;23;20428;-89
2022/05/19 07:58:55;;;;;;;13.25;8.20;;;22.40;99.90;;;;;;6184435;23;20013;-87
2022/05/19 08:01:21;;;;;;;11.73;7.80;;;22.30;99.90;;;;;;6185128;23;20021;-87
2022/05/19 08:03:47;;;;;;;12.38;7.50;;;22.20;99.90;;;;;;6183465;23;20330;-87
2022/05/19 08:06:13;;;;;;;14.60;7.60;;;22.10;99.90;;;;;;6157980;23;20032;-87
2022/05/19 08:08:40;;;;;;;13.63;6.95;;;22.00;99.90;;;;;;6185088;23;20044;-88
2022/05/19 08:11:06;;;;;;;11.57;6.90;;;22.00;99.90;;;;;;6189232;23;20139;-88
2022/05/19 08:16:17;;;;;;;14.30;8.07;;;21.90;99.90;;;;;;6158288;23;20446;-92
2022/05/19 08:18:42;;;;;;;12.90;8.63;;;21.90;99.90;;;;;;6157206;23;20028;-89
2022/05/19 08:21:11;;;;;;;14.88;8.00;;;22.00;99.90;;;;;;6154150;23;20017;-87
2022/05/19 08:23:47;;;;;;;14.38;8.25;;;22.00;99.90;;;;;;6158797;23;20020;-87
2022/05/19 08:26:13;;;;;;;16.52;7.95;;;22.10;99.90;;;;;;6181965;23;20075;-87
2022/05/19 08:28:42;;;;;;;13.75;7.10;;;22.10;99.90;;;;;;6183909;23;20025;-87
2022/05/19 08:31:17;;;;;;;12.13;6.93;;;22.20;99.90;;;;;;6183771;23;20327;-88
2022/05/19 08:33:44;;;;;;;11.10;6.63;;;22.20;99.90;;;;;;6157833;23;20067;-87
2022/05/19 08:36:11;;;;;;;13.07;7.22;;;22.30;99.90;;;;;;6158169;23;20393;-88
2022/05/19 08:38:38;;;;;;;14.15;7.70;;;22.30;99.90;;;;;;6183932;23;20013;-87
2022/05/19 08:41:12;;;;;;;12.73;7.70;;;22.30;99.90;;;;;;6184674;23;20021;-88
2022/05/19 08:43:44;;;;;;;14.85;7.60;;;22.40;99.90;;;;;;6158107;23;20342;-88
2022/05/19 08:46:19;;;;;;;14.43;10.40;;;22.90;99.90;;;;;;6157025;23;20020;-88
2022/05/19 08:48:46;;;;;;;17.40;11.15;;;22.50;99.90;;;;;;6184549;23;20016;-88
2022/05/19 08:51:12;;;;;;;15.95;11.60;;;22.60;99.90;;;;;;6184603;23;20017;-89
2022/05/19 08:53:42;;;;;;;17.65;11.77;;;22.60;99.90;;;;;;6157254;23;20318;-89
2022/05/19 08:56:24;;;;;;;16.63;10.68;;;22.70;99.90;;;;;;6158793;23;20028;-87
2022/05/19 08:59:23;;;;;;;17.02;10.63;;;22.60;99.90;;;;;;6158367;23;20060;-87
2022/05/19 09:02:00;;;;;;;16.75;11.48;;;22.60;99.90;;;;;;6184260;23;20017;-90
2022/05/19 09:04:30;;;;;;;14.70;10.57;;;22.70;99.90;;;;;;6158764;23;20024;-87
2022/05/19 09:09:57;;;;;;;16.42;11.15;;;22.80;99.90;;;;;;6158729;23;20018;-87
2022/05/19 09:12:24;;;;;;;15.93;10.43;;;22.90;99.90;;;;;;6185148;23;20436;-88
2022/05/19 09:14:50;;;;;;;15.60;10.50;;;22.90;99.90;;;;;;6183100;23;20017;-87
2022/05/19 09:17:17;;;;;;;17.27;11.43;;;22.90;99.90;;;;;;6155531;23;20398;-87
2022/05/19 09:19:53;;;;;;;15.30;11.00;;;23.10;99.90;;;;;;6156360;23;20020;-88
2022/05/19 09:22:25;;;;;;;16.85;11.70;;;23.30;99.90;;;;;;6130343;23;20446;-88
2022/05/19 09:24:53;;;;;;;16.17;12.07;;;23.30;99.90;;;;;;6129191;23;20014;-88
2022/05/19 09:27:22;;;;;;;15.35;11.30;;;23.40;99.90;;;;;;6129162;23;20260;-88
2022/05/19 09:29:50;;;;;;;17.10;12.02;;;23.40;99.90;;;;;;6127620;23;20092;-88
2022/05/19 09:32:31;;;;;;;19.35;11.48;;;23.50;99.90;;;;;;6155192;23;20017;-88
2022/05/19 09:35:25;;;;;;;17.38;11.90;;;23.50;99.90;;;;;;6153370;23;20017;-88
2022/05/19 09:38:05;;;;;;;17.83;13.05;;;23.70;99.90;;;;;;6152061;23;20028;-87
2022/05/19 09:40:37;;;;;;;16.90;11.32;;;23.60;99.90;;;;;;6129429;23;20013;-86
2022/05/19 09:43:09;;;;;;;18.05;12.38;;;23.70;99.90;;;;;;6127680;23;20244;-87
2022/05/19 09:45:45;;;;;;;15.70;11.13;;;24.00;99.90;;;;;;6129718;23;20032;-86
2022/05/19 09:48:11;;;;;;;17.42;10.43;;;24.40;99.90;;;;;;6157599;23;20018;-87
2022/05/19 09:50:48;;;;;;;14.63;10.57;;;24.80;99.90;;;;;;6155599;23;20029;-90
2022/05/19 09:53:21;;;;;;;14.07;10.23;;;25.10;99.90;;;;;;6130880;23;20024;-88
2022/05/19 09:55:53;;;;;;;;;;;25.20;99.90;;;;;;6130205;23;20028;-86
2022/05/19 09:58:31;;;;;;;15.90;11.05;;;25.30;99.90;;;;;;6157346;23;19971;-89
2022/05/19 10:01:28;;;;;;;13.95;10.63;;;25.30;99.90;;;;;;6131095;23;20017;-87
2022/05/19 10:03:58;;;;;;;14.75;10.07;;;25.30;99.90;;;;;;6129043;23;20446;-90
2022/05/19 10:06:46;;;;;;;15.55;10.80;;;25.40;99.90;;;;;;6156619;23;20017;-91
2022/05/19 10:09:31;;;;;;;15.60;10.57;;;25.90;99.90;;;;;;6130763;23;20430;-90
2022/05/19 10:12:14;;;;;;;13.70;9.43;;;25.50;99.90;;;;;;6129635;23;20100;-89
2022/05/19 10:15:00;;;;;;;14.15;8.32;;;25.60;99.90;;;;;;6130702;23;20021;-89
2022/05/19 10:17:44;;;;;;;14.05;8.10;;;25.50;99.90;;;;;;6128752;23;20017;-89
2022/05/19 10:20:21;;;;;;;12.68;8.82;;;25.60;99.90;;;;;;6132607;23;20020;-89
2022/05/19 10:23:06;;;;;;;11.95;8.13;;;25.60;99.90;;;;;;6130457;23;20058;-88
2022/05/19 10:25:43;;;;;;;12.80;7.43;;;25.70;99.90;;;;;;6159403;23;20017;-89
2022/05/19 10:31:18;;;;;;;13.95;8.68;;;26.20;99.90;;;;;;6155448;23;20065;-91
2022/05/19 10:34:15;;;;;;;10.57;6.95;;;26.40;99.90;;;;;;6154886;23;20454;-90
2022/05/19 10:36:53;;;;;;;14.00;8.43;;;26.70;99.90;;;;;;6155975;23;20028;-90
2022/05/19 10:39:33;;;;;;;13.32;7.55;;;26.80;99.90;;;;;;6155153;23;20485;-89
2022/05/19 10:42:36;;;;;;;9.75;5.30;;;26.70;99.90;;;;;;6156277;23;20415;-90
2022/05/19 10:45:31;;;;;;;8.55;4.25;;;26.70;99.90;;;;;;6129054;23;20026;-89
2022/05/19 10:48:04;;;;;;;10.38;4.60;;;26.70;99.90;;;;;;6155780;23;20017;-87
2022/05/19 10:50:41;;;;;;;;;;;26.80;99.90;;;;;;6130543;23;20528;-87
2022/05/19 10:53:46;;;;;;;9.85;5.43;;;26.70;99.90;;;;;;6130991;23;20380;-87
2022/05/19 10:56:32;;;;;;;9.75;5.30;;;26.70;99.90;;;;;;6037348;23;20404;-87
2022/05/19 10:59:12;;;;;;;10.93;5.95;;;26.70;99.90;;;;;;6012371;23;20023;-89
2022/05/19 11:02:04;;;;;;;11.10;6.55;;;26.70;99.90;;;;;;6098060;23;20323;-89
2022/05/19 11:05:13;;;;;;;9.53;6.07;;;26.60;99.90;;;;;;6156123;23;20028;-86
2022/05/19 11:07:51;;;;;;;11.68;6.53;;;26.60;99.90;;;;;;6154823;23;20029;-86
2022/05/19 11:10:33;;;;;;;12.02;6.07;;;26.70;99.90;;;;;;6156075;23;20017;-85
2022/05/19 11:13:12;;;;;;;9.27;5.25;;;26.80;99.90;;;;;;6154556;23;20101;-86
2022/05/19 11:15:47;;;;;;;10.52;5.03;;;26.80;99.90;;;;;;6155626;23;20028;-86
2022/05/19 11:18:30;;;;;;;10.60;6.45;;;26.60;99.90;;;;;;6156010;23;20013;-87
2022/05/19 11:21:05;;;;;;;;;;;26.50;99.90;;;;;;6155656;23;20044;-90
2022/05/19 11:23:52;;;;;;;9.82;4.78;;;26.50;99.90;;;;;;6156741;23;19924;-90
2022/05/19 11:26:31;;;;;;;9.90;5.00;;;26.60;99.90;;;;;;6156043;23;20013;-87
2022/05/19 11:29:06;;;;;;;9.80;5.97;;;26.60;99.90;;;;;;6128332;23;20021;-86
2022/05/19 11:31:43;;;;;;;9.10;5.50;;;26.60;99.90;;;;;;6156505;23;20319;-87
2022/05/19 11:34:20;;;;;;;9.75;5.05;;;26.90;99.90;;;;;;6154707;23;20021;-86
2022/05/19 11:37:04;;;;;;;11.80;5.60;;;27.10;99.90;;;;;;6155429;23;20084;-87
2022/05/19 11:39:40;;;;;;;11.50;5.88;;;27.90;99.90;;;;;;6155848;23;20025;-87
2022/05/19 11:42:25;;;;;;;9.73;5.10;;;27.80;99.90;;;;;;6128259;23;20010;-87
2022/05/19 11:44:51;;;;;;;9.07;5.18;;;28.10;99.90;;;;;;6128940;23;20026;-88
2022/05/19 11:56:18;;;;;;;8.45;3.78;;;28.70;98.40;;;;;;6128554;23;20022;-87
2022/05/19 11:58:44;;;;;;;10.25;4.30;;;29.00;98.80;;;;;;6129117;23;20428;-87
2022/05/19 12:01:18;;;;;;;9.25;3.85;;;28.70;97.60;;;;;;6129590;23;20018;-83
2022/05/19 12:04:05;;;;;;;8.25;3.95;;;28.50;97.10;;;;;;6154954;23;20080;-86
2022/05/19 12:06:34;;;;;;;9.90;4.60;;;28.40;98.10;;;;;;6129384;23;20022;-85
2022/05/19 12:09:30;;;;;;;8.85;3.88;;;28.50;97.70;;;;;;6154917;23;20465;-86
2022/05/19 12:11:58;;;;;;;9.23;4.07;;;28.60;96.40;;;;;;6129325;23;20111;-84
2022/05/19 12:14:27;;;;;;;11.77;4.22;;;28.70;97.60;;;;;;6155620;23;20018;-87
2022/05/19 12:17:03;;;;;;;8.50;4.00;;;28.50;97.70;;;;;;6153896;23;20093;-83
2022/05/19 12:19:33;;;;;;;9.65;4.00;;;28.60;97.80;;;;;;6129230;23;20017;-85
2022/05/19 12:22:00;;;;;;;9.55;4.10;;;28.80;97.80;;;;;;6155375;23;20053;-87
2022/05/19 12:24:56;;;;;;;9.07;4.13;;;28.60;97.60;;;;;;6154913;23;20010;-88
2022/05/19 12:27:49;;;;;;;8.50;3.60;;;28.70;96.70;;;;;;6157394;23;20021;-89
2022/05/19 12:33:31;;;;;;;8.23;3.80;;;28.50;97.20;;;;;;6156177;23;20343;-86
2022/05/19 12:36:16;;;;;;;8.80;3.78;;;28.40;97.20;;;;;;6128303;23;20104;-88
2022/05/19 12:38:44;;;;;;;7.35;3.47;;;28.30;96.70;;;;;;6127761;23;20091;-86
2022/05/19 12:41:36;;;;;;;10.18;3.70;;;28.20;97.10;;;;;;6129174;23;20021;-87
2022/05/19 12:44:38;;;;;;;8.60;3.53;;;28.20;97.20;;;;;;6129066;23;20014;-87
2022/05/19 12:47:16;;;;;;;9.57;3.72;;;28.20;97.20;;;;;;6129375;23;20096;-87
2022/05/19 12:50:00;;;;;;;8.43;3.72;;;28.00;97.40;;;;;;6154970;23;20017;-87
2022/05/19 12:53:05;;;;;;;9.20;4.25;;;27.80;97.60;;;;;;6154507;23;20017;-88
2022/05/19 12:55:37;;;;;;;8.80;3.60;;;27.60;97.40;;;;;;6156070;23;20021;-89
2022/05/19 12:58:39;;;;;;;9.35;3.70;;;27.40;97.60;;;;;;6128410;23;20065;-88
2022/05/19 13:01:22;;;;;;;8.60;3.70;;;27.10;98.20;;;;;;6129579;23;20025;-87
2022/05/19 13:04:02;;;;;;;7.50;3.63;;;26.90;97.90;;;;;;6155222;23;20053;-86
2022/05/19 13:06:30;;;;;;;12.10;4.75;;;26.60;98.10;;;;;;6127924;23;20049;-87
2022/05/19 13:09:00;;;;;;;14.45;5.25;;;25.70;99.90;;;;;;6154651;23;20450;-89
2022/05/19 13:11:31;;;;;;;9.30;4.70;;;25.10;99.90;;;;;;6128775;23;20401;-89
2022/05/19 13:14:05;;;;;;;13.25;5.30;;;24.10;99.90;;;;;;6153980;23;20025;-87
2022/05/19 13:16:36;;;;;;;11.57;5.38;;;23.20;99.90;;;;;;6154836;23;20028;-88
2022/05/19 13:19:12;;;;;;;13.02;5.30;;;22.50;99.90;;;;;;6154368;23;20505;-88